Terminal Aerodrome Forecast
Issued by NWS

Home | Current Version | Previous Version | Text Only | Print | Product List | Glossary On
Versions: 1 2 3 4 5 6 7 8 9 10 11 12
693
FTUS42 TJSJ 220539
TAFISX
TAF
TISX 220539Z 2206/2306 VRB03KT P6SM SCT026
     FM221300 04008KT P6SM SCT025
     FM221730 08008KT P6SM SCT030
     FM222300 VRB04KT P6SM FEW025=

USA.gov is the U.S. government's official web portal to all federal, state and local government web resources and services.